Sweet Home, OR

10:13 AM PST on February 26, 2017 (GMT -0800)
Near Clarkmill and Hwy 20 | | Change Station
Active Advisory: Winter Weather Advisory

Elev 610 ft 44.40 °N, 122.70 °W | Updated 8 minutes ago

Ice Pellets
Ice Pellets
36.3 °F
Feels Like 36 °F
N
0.0
Wind Variable Wind from ENE
Gusts 1.0 mph

Today
High -- | Low -- °F
--% Chance of Precip.
Yesterday
High -- | Low -- °F
Precip. -- in
Pressure 29.78 in
Visibility 4.0 miles
Clouds Scattered Clouds 800 ft
Overcast 1300 ft
Windchill 36 °F
Dew Point 30 °F
Humidity 79%
Rainfall 0.15 in
Snow Depth Not available.
6:52 AM 5:55 PM
New Moon, 0% visible
METAR KEUG 261754Z 21005KT 4SM -RASN SCT008 OVC013 01/01 A2977 RMK AO2 RAE36B47SNB17 SLP083 P0010 60011 T00060006 10033 20006 55010 $
Pressure 29.78 in
Visibility 4.0 miles
Clouds Scattered Clouds 800 ft
Overcast 1300 ft
Windchill 36 °F
Dew Point 30 °F
Humidity 79%
Rainfall 0.15 in
Snow Depth Not available.
6:52 AM 5:55 PM
New Moon, 0% visible
METAR KEUG 261754Z 21005KT 4SM -RASN SCT008 OVC013 01/01 A2977 RMK AO2 RAE36B47SNB17 SLP083 P0010 60011 T00060006 10033 20006 55010 $

Get Your Daily Forecast Email!

Thanks for signing up!

Be on the lookout for a verification email in your inbox.

You'll start receiving the daily forecast at 8 AM.

×

10-Day Weather Forecast

Almanac

Astronomy

Feb. 26, 2017 Rise Set
Actual Time
Civil Twilight
Nautical Twilight
Astronomical Twilight
Moon
Length of Visible Light
Length of Day
Tomorrow will be .
, % of the Moon is Illuminated

Today's Extremes

State Highs State Lows

Community

WunderPhotos

Upload Photos

1,962,540 photos uploaded!

WunderBlog® & News

Nearby

Air Quality

  Air Quality AQ Index Pollutant
Not available.

Snow Depth

Station Depth Elevation

Earthquake Activity

City Distance Mag. Time & Date
Minimum magnitude displayed is 2.5.

Coastal Water Temperatures

Place Temperature

Stations

Nearby Weather Stations

Station Location Temp. Windchill Dew Point Humidity Wind Precip. Elev Updated Type
                   

Watches & Warnings

Winter Weather Advisory
Issued: 6:08 AM PST Feb. 26, 2017 – National Weather Service

... Winter Weather Advisory remains in effect until 4 PM PST this
afternoon...

* timing... through this afternoon. Heaviest between 6 am and 9 am.

* Snow level... around 1200 feet.

* Snow accumulations... 3 to 5 inches.

* Impacts... roads will be snow covered and slick at times.

Precautionary/preparedness actions...

A Winter Weather Advisory for snow means that periods of snow
will cause primarily travel difficulties. Be prepared for snow
covered roads and limited visibilities, and use caution while
driving.